Time;durP1;ratioP1;P1;durP2;ratioP2;P2;SDS_P1;SDS_P2;PMS_P1;PMS_P2;Temp;Humidity;BMP_temperature;BMP_pressure;BME280_temperature;BME280_humidity;BME280_pressure;Samples;Min_cycle;Max_cycle;Signal;HPM_P1;HPM_P2
2021/03/19 00:00:03;;;;;;;10.40;7.23;;;12.00;37.20;;;;;;5060121;28;20440;-83
2021/03/19 00:02:29;;;;;;;10.30;6.90;;;11.80;35.80;;;;;;5056482;28;20847;-84
2021/03/19 00:04:57;;;;;;;16.37;7.07;;;11.80;40.00;;;;;;5040354;28;20506;-84
2021/03/19 00:07:24;;;;;;;11.30;7.60;;;12.00;38.60;;;;;;5053559;28;20426;-83
2021/03/19 00:09:52;;;;;;;10.77;6.83;;;11.90;37.10;;;;;;5059983;28;20468;-83
2021/03/19 00:12:19;;;;;;;10.30;6.83;;;12.00;39.40;;;;;;5060035;28;20440;-84
2021/03/19 00:14:46;;;;;;;11.60;6.40;;;12.20;39.10;;;;;;5059385;28;20476;-84
2021/03/19 00:17:13;;;;;;;12.10;7.10;;;12.10;38.70;;;;;;5037140;28;20582;-84
2021/03/19 00:19:39;;;;;;;11.20;7.20;;;11.90;37.10;;;;;;5051131;28;20426;-84
2021/03/19 00:22:07;;;;;;;9.23;6.10;;;11.90;38.00;;;;;;5052693;28;20645;-83
2021/03/19 00:24:33;;;;;;;15.30;7.80;;;12.10;38.80;;;;;;5042915;28;20458;-83
2021/03/19 00:27:00;;;;;;;11.57;6.80;;;12.10;37.30;;;;;;5042138;28;20453;-83
2021/03/19 00:29:26;;;;;;;10.70;6.83;;;11.90;39.20;;;;;;5040527;28;20452;-83
2021/03/19 00:31:53;;;;;;;9.67;6.60;;;12.10;39.00;;;;;;5039310;28;20496;-83
2021/03/19 00:34:19;;;;;;;17.83;7.13;;;12.10;37.30;;;;;;5040041;28;20457;-83
2021/03/19 00:36:45;;;;;;;13.20;7.53;;;11.90;36.30;;;;;;5039526;28;20446;-83
2021/03/19 00:39:13;;;;;;;9.67;6.10;;;11.40;38.80;;;;;;5045790;28;20445;-83
2021/03/19 00:41:39;;;;;;;10.13;6.80;;;11.10;39.50;;;;;;5045907;28;20481;-84
2021/03/19 00:44:06;;;;;;;10.43;6.80;;;10.80;37.30;;;;;;5040681;28;20458;-84
2021/03/19 00:46:33;;;;;;;11.60;7.13;;;10.10;37.10;;;;;;5038482;28;20452;-84
2021/03/19 00:48:59;;;;;;;8.60;7.07;;;9.80;39.80;;;;;;5037784;28;20481;-84
2021/03/19 00:51:26;;;;;;;11.40;6.70;;;9.40;38.60;;;;;;5038101;28;20439;-84
2021/03/19 00:53:52;;;;;;;8.20;6.50;;;9.30;43.40;;;;;;5036538;28;20477;-84
2021/03/19 00:56:19;;;;;;;11.37;6.70;;;9.60;42.10;;;;;;5038201;28;20458;-83
2021/03/19 00:58:46;;;;;;;11.13;6.50;;;10.10;40.70;;;;;;5037048;28;20966;-83
2021/03/19 01:01:12;;;;;;;9.60;5.87;;;10.40;42.00;;;;;;5036599;28;20483;-83
2021/03/19 01:03:39;;;;;;;10.20;5.53;;;10.60;41.60;;;;;;5037013;28;20503;-83
2021/03/19 01:06:06;;;;;;;13.20;7.07;;;11.00;41.20;;;;;;5038956;28;20476;-83
2021/03/19 01:08:33;;;;;;;7.50;5.10;;;10.90;36.20;;;;;;5040058;28;20445;-83
2021/03/19 01:10:59;;;;;;;12.63;5.93;;;11.00;40.30;;;;;;5035861;28;20437;-83
2021/03/19 01:13:27;;;;;;;8.07;5.30;;;11.00;40.80;;;;;;5039239;28;20441;-83
2021/03/19 01:15:55;;;;;;;11.70;7.17;;;11.10;41.00;;;;;;5040425;28;20465;-82
2021/03/19 01:18:24;;;;;;;15.23;6.33;;;10.90;39.10;;;;;;5050811;28;20473;-82
2021/03/19 01:20:51;;;;;;;10.53;6.40;;;10.90;41.30;;;;;;5040979;28;20469;-82
2021/03/19 01:23:19;;;;;;;8.67;6.93;;;11.10;39.60;;;;;;5036087;28;20787;-83
2021/03/19 01:25:46;;;;;;;8.00;5.40;;;11.00;39.00;;;;;;5035046;28;20844;-83
2021/03/19 01:28:14;;;;;;;8.27;6.07;;;10.90;41.60;;;;;;5035186;28;20444;-83
2021/03/19 01:30:44;;;;;;;9.00;5.70;;;11.40;40.50;;;;;;5035077;28;20816;-83
2021/03/19 01:33:11;;;;;;;12.40;6.47;;;11.20;39.90;;;;;;5035013;28;20436;-83
2021/03/19 01:35:39;;;;;;;10.10;6.23;;;11.10;38.90;;;;;;5036083;28;20484;-83
2021/03/19 01:38:07;;;;;;;9.00;5.63;;;10.90;39.10;;;;;;5035400;28;20457;-83
2021/03/19 01:40:36;;;;;;;8.00;5.77;;;10.90;40.40;;;;;;5035428;28;20535;-83
2021/03/19 01:43:05;;;;;;;7.67;5.53;;;11.00;40.50;;;;;;5035245;28;20437;-83
2021/03/19 01:46:05;;;;;;;7.63;5.87;;;11.10;41.80;;;;;;5035574;28;20990;-83
2021/03/19 01:49:08;;;;;;;8.57;6.00;;;11.40;41.10;;;;;;5036249;28;20466;-83
2021/03/19 01:52:12;;;;;;;6.30;5.30;;;11.40;41.10;;;;;;5036264;28;20916;-83
2021/03/19 01:55:16;;;;;;;11.13;6.67;;;11.50;40.10;;;;;;5036150;28;20468;-83
2021/03/19 01:58:22;;;;;;;9.23;5.60;;;11.30;39.80;;;;;;5036074;28;20449;-83
2021/03/19 02:01:25;;;;;;;10.90;6.73;;;11.40;41.50;;;;;;5009323;28;20501;-83
2021/03/19 02:07:51;;;;;;;9.67;5.67;;;11.70;40.50;;;;;;5034441;28;20397;-83
2021/03/19 02:21:00;;;;;;;6.90;5.03;;;11.90;40.90;;;;;;5034768;28;20528;-83
2021/03/19 02:24:04;;;;;;;7.47;5.30;;;11.90;41.10;;;;;;5034432;28;20947;-83
2021/03/19 02:27:08;;;;;;;6.33;4.60;;;12.00;41.20;;;;;;5034058;28;20983;-83
2021/03/19 02:30:19;;;;;;;6.20;5.07;;;12.30;40.90;;;;;;5033765;28;20528;-83
2021/03/19 02:32:47;;;;;;;8.13;5.40;;;12.20;40.50;;;;;;5006076;28;20510;-83
2021/03/19 02:35:17;;;;;;;9.23;5.50;;;12.10;41.10;;;;;;5033464;28;20452;-83
2021/03/19 02:37:44;;;;;;;8.03;5.20;;;12.30;40.60;;;;;;5034139;28;20406;-83
2021/03/19 02:40:14;;;;;;;8.40;5.83;;;12.40;40.20;;;;;;5033353;28;20485;-83
2021/03/19 02:42:40;;;;;;;9.23;5.67;;;12.40;40.00;;;;;;5034025;28;20431;-83
2021/03/19 02:45:10;;;;;;;12.37;7.20;;;12.20;40.60;;;;;;5033955;28;20481;-83
2021/03/19 02:47:37;;;;;;;5.70;4.90;;;12.10;40.10;;;;;;5033482;28;20452;-83
2021/03/19 02:50:05;;;;;;;8.87;5.37;;;12.10;40.30;;;;;;5033838;28;20540;-83
2021/03/19 02:52:35;;;;;;;8.43;5.33;;;11.90;40.60;;;;;;5032717;28;21020;-83
2021/03/19 02:55:02;;;;;;;9.00;5.13;;;12.10;41.10;;;;;;5033150;28;20573;-83
2021/03/19 02:57:28;;;;;;;12.33;5.83;;;12.10;40.60;;;;;;5034021;28;20454;-83
2021/03/19 02:59:55;;;;;;;8.50;5.60;;;12.00;41.10;;;;;;5032802;28;20451;-83
2021/03/19 03:02:21;;;;;;;14.97;5.50;;;11.90;41.20;;;;;;5033030;28;20492;-83
2021/03/19 03:04:48;;;;;;;6.13;5.17;;;12.00;40.80;;;;;;5033443;28;20465;-83
2021/03/19 03:07:23;;;;;;;11.87;6.00;;;11.80;40.70;;;;;;5033053;28;20438;-83
2021/03/19 03:09:50;;;;;;;8.63;5.60;;;11.70;40.60;;;;;;5032968;28;20927;-83
2021/03/19 03:12:17;;;;;;;6.70;5.60;;;11.70;40.90;;;;;;5033058;28;20448;-83
2021/03/19 03:14:44;;;;;;;8.83;6.30;;;11.90;40.90;;;;;;5033210;28;20473;-83
2021/03/19 03:17:10;;;;;;;7.73;6.20;;;11.40;39.50;;;;;;5034015;28;20473;-83
2021/03/19 03:19:38;;;;;;;10.03;5.97;;;11.40;41.00;;;;;;5036785;28;20491;-83
2021/03/19 03:22:05;;;;;;;8.30;6.10;;;11.70;41.20;;;;;;5036265;28;20535;-83
2021/03/19 03:24:32;;;;;;;7.17;5.50;;;11.50;40.40;;;;;;5036438;28;20476;-84
2021/03/19 03:26:59;;;;;;;6.27;5.67;;;11.70;40.60;;;;;;5036504;28;20926;-84
2021/03/19 03:29:26;;;;;;;13.03;7.70;;;11.80;40.70;;;;;;5036879;28;20814;-84
2021/03/19 03:31:54;;;;;;;11.70;7.63;;;10.60;37.50;;;;;;5036417;28;20889;-84
2021/03/19 03:34:21;;;;;;;10.73;7.13;;;9.50;39.20;;;;;;5037920;28;20469;-83
2021/03/19 03:36:47;;;;;;;18.93;9.57;;;10.00;43.90;;;;;;5037520;28;20449;-84
2021/03/19 03:39:17;;;;;;;9.33;6.20;;;9.90;37.80;;;;;;5036309;28;20463;-84
2021/03/19 03:41:44;;;;;;;15.50;7.80;;;9.80;44.50;;;;;;5036459;28;20483;-85
2021/03/19 03:44:13;;;;;;;9.27;7.10;;;10.20;43.50;;;;;;5037070;28;20563;-85
2021/03/19 03:46:41;;;;;;;11.27;7.77;;;10.00;41.30;;;;;;5036292;28;20947;-85
2021/03/19 03:49:08;;;;;;;12.60;7.60;;;10.10;42.10;;;;;;5036051;28;20484;-84
2021/03/19 03:51:34;;;;;;;11.67;7.77;;;10.50;42.10;;;;;;5036159;28;20513;-85
2021/03/19 03:54:01;;;;;;;9.93;7.13;;;10.70;41.10;;;;;;5036180;28;20553;-84
2021/03/19 03:56:29;;;;;;;9.27;6.77;;;10.70;40.90;;;;;;5035991;28;20747;-85
2021/03/19 03:58:57;;;;;;;9.87;6.70;;;10.90;41.30;;;;;;5035802;28;20446;-85
2021/03/19 04:01:23;;;;;;;9.80;6.57;;;10.90;41.60;;;;;;5036416;28;20567;-84
2021/03/19 04:03:50;;;;;;;9.60;6.90;;;11.10;41.70;;;;;;5036411;28;20438;-85
2021/03/19 04:06:17;;;;;;;12.27;6.27;;;11.40;41.50;;;;;;5037769;28;20897;-85
2021/03/19 04:08:44;;;;;;;12.80;8.37;;;11.70;40.80;;;;;;5036298;28;20460;-85
2021/03/19 04:11:14;;;;;;;21.83;9.53;;;10.70;38.50;;;;;;5042181;28;20437;-83
2021/03/19 04:13:41;;;;;;;8.27;6.47;;;10.40;39.50;;;;;;5049807;28;20429;-83
2021/03/19 04:16:09;;;;;;;9.53;7.27;;;10.30;42.10;;;;;;5038862;28;20529;-84
2021/03/19 04:18:37;;;;;;;7.20;5.87;;;10.60;41.70;;;;;;5036540;28;20960;-84
2021/03/19 04:21:07;;;;;;;9.83;6.73;;;10.90;42.10;;;;;;5036223;28;20902;-85
2021/03/19 04:23:35;;;;;;;7.37;6.20;;;10.70;42.40;;;;;;5037360;28;20437;-84
2021/03/19 04:26:01;;;;;;;7.10;5.67;;;10.90;41.70;;;;;;5049297;28;20465;-84
2021/03/19 04:28:31;;;;;;;9.20;6.97;;;10.90;42.00;;;;;;5057448;28;20441;-84
2021/03/19 04:30:58;;;;;;;10.10;7.37;;;10.70;41.30;;;;;;5058304;28;20417;-84
2021/03/19 04:33:27;;;;;;;15.00;8.93;;;10.50;39.70;;;;;;5058078;28;20460;-84
2021/03/19 04:36:00;;;;;;;10.80;7.53;;;10.50;39.00;;;;;;5058009;28;20458;-85
2021/03/19 04:38:27;;;;;;;9.60;7.30;;;10.00;41.50;;;;;;5057673;28;20449;-84
2021/03/19 04:40:57;;;;;;;17.03;8.80;;;10.20;42.80;;;;;;5057932;28;20492;-84
2021/03/19 04:43:23;;;;;;;14.47;7.80;;;10.10;41.60;;;;;;5058247;28;20458;-85
2021/03/19 04:45:50;;;;;;;14.47;8.40;;;9.90;44.60;;;;;;5047549;28;20462;-84
2021/03/19 04:48:16;;;;;;;12.73;7.23;;;10.30;42.70;;;;;;5046776;28;20441;-84
2021/03/19 04:50:43;;;;;;;12.50;8.33;;;10.50;41.40;;;;;;5049553;28;20468;-83
2021/03/19 04:53:10;;;;;;;15.73;8.73;;;10.00;38.90;;;;;;5054508;28;20522;-84
2021/03/19 04:55:37;;;;;;;15.00;8.17;;;10.30;42.10;;;;;;5055651;28;20481;-84
2021/03/19 04:58:03;;;;;;;15.40;9.87;;;10.30;40.70;;;;;;5055915;28;20433;-83
2021/03/19 05:00:30;;;;;;;15.67;8.83;;;10.00;39.40;;;;;;5055000;28;20453;-84
2021/03/19 05:02:56;;;;;;;11.10;8.87;;;9.80;40.40;;;;;;5054482;28;20449;-84
2021/03/19 05:05:25;;;;;;;10.17;7.87;;;9.40;41.50;;;;;;5053908;28;20461;-84
2021/03/19 05:07:54;;;;;;;12.17;7.17;;;9.60;43.60;;;;;;5048306;28;20421;-85
2021/03/19 05:10:22;;;;;;;12.63;9.00;;;10.00;42.60;;;;;;5044698;28;20468;-85
2021/03/19 05:12:49;;;;;;;18.20;9.10;;;9.90;41.20;;;;;;5048397;28;20450;-84
2021/03/19 05:15:17;;;;;;;11.17;7.80;;;9.80;43.20;;;;;;5051253;28;20477;-84
2021/03/19 05:17:43;;;;;;;13.90;9.70;;;9.80;44.20;;;;;;5057899;28;20427;-84
2021/03/19 05:20:12;;;;;;;25.97;10.63;;;9.40;39.10;;;;;;5058354;28;20429;-84
2021/03/19 05:22:39;;;;;;;11.97;8.27;;;8.90;42.10;;;;;;5054379;28;20555;-85
2021/03/19 05:25:09;;;;;;;11.50;8.30;;;9.30;44.10;;;;;;5041493;28;20480;-85
2021/03/19 05:27:35;;;;;;;12.17;8.00;;;9.80;44.50;;;;;;5053459;28;20453;-85
2021/03/19 05:30:03;;;;;;;13.40;7.67;;;10.10;43.00;;;;;;5058176;28;20446;-84
2021/03/19 05:32:29;;;;;;;14.57;9.40;;;10.00;42.10;;;;;;5058199;28;20445;-84
2021/03/19 05:34:56;;;;;;;14.80;8.50;;;10.00;39.60;;;;;;5057327;28;20494;-84
2021/03/19 05:37:22;;;;;;;15.80;9.57;;;9.80;40.80;;;;;;5037132;28;20445;-85
2021/03/19 05:39:49;;;;;;;12.10;8.50;;;9.40;42.20;;;;;;5034876;28;20503;-85
2021/03/19 05:42:21;;;;;;;10.40;8.57;;;8.90;41.50;;;;;;5034604;28;20473;-85
2021/03/19 05:44:55;;;;;;;12.70;9.23;;;8.70;42.50;;;;;;5037999;28;20481;-84
2021/03/19 05:47:21;;;;;;;16.60;10.63;;;8.90;44.10;;;;;;5039450;28;20437;-85
2021/03/19 05:49:57;;;;;;;12.20;9.13;;;9.10;43.40;;;;;;5039081;28;20433;-87
2021/03/19 05:52:27;;;;;;;21.70;10.80;;;8.70;43.00;;;;;;5039191;28;20825;-85
2021/03/19 05:54:54;;;;;;;19.27;12.70;;;7.80;41.90;;;;;;5038990;28;20479;-85
2021/03/19 05:57:27;;;;;;;11.80;9.40;;;7.30;43.30;;;;;;5039433;28;20441;-84
2021/03/19 05:59:56;;;;;;;21.10;10.20;;;8.00;46.70;;;;;;5038841;28;20452;-84
2021/03/19 06:02:26;;;;;;;17.10;10.33;;;8.40;44.10;;;;;;5038261;28;20516;-84
2021/03/19 06:05:01;;;;;;;15.10;10.13;;;8.60;43.40;;;;;;5039113;28;20535;-84
2021/03/19 06:07:43;;;;;;;15.40;10.27;;;8.10;43.10;;;;;;5039097;28;20783;-85
2021/03/19 06:10:22;;;;;;;17.73;11.80;;;8.50;43.20;;;;;;5039199;28;20467;-85
2021/03/19 06:12:53;;;;;;;18.70;10.90;;;9.10;42.00;;;;;;5038526;28;20445;-85
2021/03/19 06:15:28;;;;;;;14.10;9.37;;;9.20;41.80;;;;;;5038483;28;20476;-86
2021/03/19 06:17:55;;;;;;;18.27;11.50;;;8.30;44.10;;;;;;5039021;28;20440;-85
2021/03/19 06:20:25;;;;;;;14.87;10.30;;;8.30;42.50;;;;;;5038071;28;20499;-86
2021/03/19 06:23:01;;;;;;;26.40;12.20;;;8.40;44.90;;;;;;5042637;28;20583;-85
2021/03/19 06:25:39;;;;;;;16.10;10.10;;;8.90;41.90;;;;;;5042471;28;20448;-85
2021/03/19 06:28:24;;;;;;;11.97;8.30;;;9.60;44.60;;;;;;5042179;28;20425;-85
2021/03/19 06:30:50;;;;;;;14.03;9.80;;;10.00;42.00;;;;;;5042186;28;20910;-85
2021/03/19 06:33:27;;;;;;;14.90;9.63;;;10.40;42.50;;;;;;5043909;28;20938;-85
2021/03/19 06:36:16;;;;;;;21.43;8.10;;;10.60;40.50;;;;;;5042180;28;20985;-85
2021/03/19 06:38:44;;;;;;;11.50;8.90;;;10.60;41.90;;;;;;5040467;28;20529;-85
2021/03/19 06:41:27;;;;;;;18.90;8.93;;;10.20;40.00;;;;;;5041913;28;20497;-84
2021/03/19 06:44:17;;;;;;;21.23;10.73;;;10.60;40.40;;;;;;5040126;28;20814;-85
2021/03/19 06:46:50;;;;;;;16.50;10.73;;;10.50;38.10;;;;;;5041451;28;20441;-84
2021/03/19 06:49:18;;;;;;;15.33;10.60;;;10.00;38.90;;;;;;5041361;28;20484;-85
2021/03/19 06:51:46;;;;;;;12.30;8.87;;;9.60;40.50;;;;;;5040330;28;20950;-84
2021/03/19 06:54:14;;;;;;;14.80;11.03;;;9.80;42.00;;;;;;5042136;28;20544;-84
2021/03/19 06:57:02;;;;;;;15.77;9.57;;;10.00;39.20;;;;;;5042448;28;20501;-87
2021/03/19 06:59:41;;;;;;;19.80;11.33;;;9.40;40.00;;;;;;5044850;28;20801;-85
2021/03/19 07:02:56;;;;;;;16.10;12.30;;;9.00;41.30;;;;;;5046927;28;20495;-85
2021/03/19 07:05:46;;;;;;;17.13;11.50;;;8.80;41.20;;;;;;5043879;28;20460;-85
2021/03/19 07:08:38;;;;;;;15.07;10.60;;;9.50;41.50;;;;;;5043542;28;20441;-85
2021/03/19 07:11:30;;;;;;;18.47;12.80;;;9.10;40.40;;;;;;5036972;28;20450;-85
2021/03/19 07:14:14;;;;;;;19.80;12.37;;;8.80;42.20;;;;;;5038977;28;20406;-85
2021/03/19 07:16:52;;;;;;;16.10;11.23;;;8.50;42.90;;;;;;5038681;28;20923;-85
2021/03/19 07:19:23;;;;;;;18.77;12.43;;;8.50;43.50;;;;;;5038107;28;20445;-86
2021/03/19 07:22:08;;;;;;;19.87;12.30;;;8.90;44.20;;;;;;5037821;28;20457;-86
2021/03/19 07:25:14;;;;;;;19.30;13.00;;;8.50;42.30;;;;;;5037810;28;20470;-87
2021/03/19 07:28:19;;;;;;;21.53;13.43;;;8.80;43.10;;;;;;5037010;28;20429;-86
2021/03/19 07:30:54;;;;;;;22.60;13.17;;;8.80;41.90;;;;;;4978630;28;20427;-86
2021/03/19 07:33:49;;;;;;;17.13;12.73;;;8.80;41.80;;;;;;5033773;28;20938;-86
2021/03/19 07:36:37;;;;;;;16.57;11.93;;;8.70;41.50;;;;;;5038584;28;20465;-86
2021/03/19 07:39:26;;;;;;;20.10;12.03;;;8.70;42.00;;;;;;5037485;28;20471;-86
2021/03/19 07:42:07;;;;;;;17.03;9.40;;;8.40;41.40;;;;;;5036405;28;20511;-86
2021/03/19 07:44:43;;;;;;;15.93;11.67;;;8.50;43.20;;;;;;5037564;28;20543;-86
2021/03/19 07:47:43;;;;;;;18.87;10.17;;;7.90;43.50;;;;;;5036437;28;20617;-86
2021/03/19 07:50:26;;;;;;;22.63;11.90;;;8.20;44.30;;;;;;5034345;28;20484;-86
2021/03/19 07:53:07;;;;;;;16.70;11.50;;;8.60;43.30;;;;;;5036588;28;20450;-86
2021/03/19 07:55:55;;;;;;;20.83;14.27;;;8.90;42.90;;;;;;5037143;28;20527;-86
2021/03/19 07:58:44;;;;;;;19.27;12.63;;;9.30;41.10;;;;;;5037423;28;20433;-86
2021/03/19 08:01:19;;;;;;;24.73;12.30;;;9.70;42.00;;;;;;5037992;28;20473;-86
2021/03/19 08:03:53;;;;;;;16.53;11.50;;;10.00;39.90;;;;;;5037102;28;20943;-86
2021/03/19 08:06:28;;;;;;;19.37;12.33;;;9.60;39.90;;;;;;5038059;28;20468;-86
2021/03/19 08:09:01;;;;;;;13.33;10.23;;;9.60;41.50;;;;;;5037302;28;20487;-86
2021/03/19 08:11:35;;;;;;;13.60;9.70;;;9.70;40.00;;;;;;5036880;28;20479;-86
2021/03/19 08:14:14;;;;;;;12.67;9.27;;;10.20;41.90;;;;;;5036514;28;20423;-86
2021/03/19 08:16:44;;;;;;;12.47;7.87;;;10.50;40.80;;;;;;5037176;28;20434;-85
2021/03/19 08:19:23;;;;;;;14.87;10.50;;;11.20;39.50;;;;;;5036868;28;20443;-85
2021/03/19 08:21:58;;;;;;;15.37;10.67;;;11.30;36.60;;;;;;5037449;28;20457;-85
2021/03/19 08:24:34;;;;;;;16.50;10.07;;;10.40;38.90;;;;;;5036431;28;20492;-85
2021/03/19 08:27:12;;;;;;;14.87;11.20;;;9.70;40.60;;;;;;5036233;28;20438;-85
2021/03/19 08:29:47;;;;;;;13.77;10.00;;;9.60;40.90;;;;;;5038825;28;20437;-85
2021/03/19 08:32:31;;;;;;;17.13;11.40;;;9.20;41.20;;;;;;5036254;28;20430;-85
2021/03/19 08:35:08;;;;;;;13.00;10.47;;;9.60;41.70;;;;;;5035364;28;20531;-85
2021/03/19 08:37:44;;;;;;;16.40;10.60;;;9.60;40.50;;;;;;5035946;28;20469;-85
2021/03/19 08:40:18;;;;;;;12.00;9.33;;;9.30;40.60;;;;;;5035624;28;20525;-86
2021/03/19 08:42:50;;;;;;;17.67;11.53;;;9.20;40.80;;;;;;5035480;28;20492;-85
2021/03/19 08:45:20;;;;;;;15.83;11.40;;;9.40;41.00;;;;;;5035372;28;20539;-85
2021/03/19 08:47:50;;;;;;;18.70;10.57;;;9.00;41.70;;;;;;5035751;28;20422;-85
2021/03/19 08:50:33;;;;;;;17.57;11.30;;;9.20;42.60;;;;;;5035666;28;21028;-85
2021/03/19 08:53:17;;;;;;;15.00;11.27;;;8.70;42.40;;;;;;5036085;28;20452;-85
2021/03/19 08:55:46;;;;;;;20.97;12.53;;;8.30;44.00;;;;;;5034905;28;20870;-85
2021/03/19 08:58:46;;;;;;;18.40;12.80;;;8.40;44.10;;;;;;5035061;28;20532;-85
2021/03/19 09:01:13;;;;;;;16.83;12.37;;;8.50;43.60;;;;;;5035448;28;20477;-85
2021/03/19 09:03:55;;;;;;;12.67;9.00;;;8.60;44.80;;;;;;5035338;28;20476;-86
2021/03/19 09:06:34;;;;;;;18.43;12.70;;;9.00;44.60;;;;;;5036033;28;20503;-85
2021/03/19 09:09:37;;;;;;;16.40;12.07;;;9.50;43.10;;;;;;5035540;28;20880;-86
2021/03/19 09:12:16;;;;;;;25.57;11.70;;;9.10;41.50;;;;;;5040349;28;20510;-86
2021/03/19 09:14:47;;;;;;;16.77;11.67;;;9.40;42.90;;;;;;5035703;28;20511;-86
2021/03/19 09:17:51;;;;;;;19.70;12.67;;;9.70;42.10;;;;;;5043576;28;20441;-86
2021/03/19 09:20:30;;;;;;;16.40;11.87;;;9.60;41.60;;;;;;5054187;28;20456;-85
2021/03/19 09:23:15;;;;;;;15.40;11.77;;;9.40;42.30;;;;;;5044798;28;20470;-85
2021/03/19 09:25:45;;;;;;;15.10;10.43;;;9.60;41.30;;;;;;5035282;28;20976;-85
2021/03/19 09:28:55;;;;;;;14.30;11.33;;;8.90;42.00;;;;;;5035457;28;20446;-85
2021/03/19 09:31:41;;;;;;;35.80;12.53;;;8.80;41.90;;;;;;5035957;28;20532;-84
2021/03/19 09:34:21;;;;;;;18.77;12.30;;;9.20;43.10;;;;;;5036734;28;20436;-85
2021/03/19 09:36:58;;;;;;;15.37;10.97;;;9.00;42.10;;;;;;5037055;28;20457;-85
2021/03/19 09:39:52;;;;;;;17.23;13.20;;;7.80;43.50;;;;;;5036504;28;20409;-85
2021/03/19 09:42:42;;;;;;;19.73;12.97;;;7.80;43.90;;;;;;5034819;28;20472;-85
2021/03/19 09:45:22;;;;;;;16.77;11.90;;;7.10;45.60;;;;;;5035432;28;20461;-85
2021/03/19 09:47:51;;;;;;;19.10;12.00;;;7.20;46.50;;;;;;5035044;28;20480;-85
2021/03/19 09:50:21;;;;;;;14.40;10.50;;;8.00;45.60;;;;;;5035523;28;20445;-86
2021/03/19 09:52:58;;;;;;;11.50;8.17;;;9.00;46.30;;;;;;5035924;28;20438;-84
2021/03/19 09:55:34;;;;;;;17.37;12.13;;;9.70;45.00;;;;;;5037710;28;20472;-85
2021/03/19 09:58:01;;;;;;;17.30;12.53;;;9.70;41.00;;;;;;5038266;28;20812;-85
2021/03/19 10:00:29;;;;;;;16.77;12.43;;;9.50;42.00;;;;;;5037159;28;20454;-85
2021/03/19 10:03:08;;;;;;;18.07;13.40;;;9.40;41.60;;;;;;5038280;28;20476;-84
2021/03/19 10:05:37;;;;;;;13.90;10.23;;;8.40;43.40;;;;;;5039854;28;20507;-84
2021/03/19 10:08:04;;;;;;;20.87;13.77;;;7.50;45.40;;;;;;5039466;28;20440;-85
2021/03/19 10:10:35;;;;;;;19.77;14.37;;;7.80;45.50;;;;;;5041980;28;20477;-85
2021/03/19 10:13:07;;;;;;;19.13;12.20;;;7.60;46.00;;;;;;5041830;28;20475;-85
2021/03/19 10:15:35;;;;;;;22.13;14.67;;;7.10;48.10;;;;;;5040417;28;20492;-85
2021/03/19 10:18:07;;;;;;;19.40;14.77;;;6.80;48.20;;;;;;5042007;28;20480;-85
2021/03/19 10:20:36;;;;;;;23.10;15.70;;;6.60;49.10;;;;;;5041618;28;20422;-85
2021/03/19 10:23:14;;;;;;;22.00;15.47;;;6.00;51.00;;;;;;5040695;28;20884;-85
2021/03/19 10:25:42;;;;;;;23.70;15.60;;;5.90;51.50;;;;;;5050768;28;20483;-85
2021/03/19 10:28:21;;;;;;;22.30;15.23;;;5.70;52.20;;;;;;5059034;28;20432;-85
2021/03/19 10:30:52;;;;;;;25.60;16.67;;;5.90;52.40;;;;;;5059755;28;20413;-85
2021/03/19 10:33:23;;;;;;;23.23;16.77;;;5.60;52.80;;;;;;5043331;28;20433;-86
2021/03/19 10:35:56;;;;;;;26.47;16.63;;;5.50;53.70;;;;;;5053451;28;20461;-85
2021/03/19 10:38:32;;;;;;;23.07;16.20;;;5.60;53.20;;;;;;5061494;28;20445;-85
2021/03/19 10:41:02;;;;;;;26.37;16.67;;;5.30;54.40;;;;;;5060598;28;20447;-85
2021/03/19 10:43:34;;;;;;;25.67;17.47;;;5.40;54.10;;;;;;5058584;28;20457;-85
2021/03/19 10:46:06;;;;;;;26.67;15.87;;;5.20;54.50;;;;;;5038834;28;20500;-86
2021/03/19 10:48:42;;;;;;;24.37;15.90;;;5.50;55.00;;;;;;5039309;28;20441;-86
2021/03/19 10:51:26;;;;;;;33.40;18.40;;;5.30;54.20;;;;;;5039387;28;20503;-86
2021/03/19 10:53:57;;;;;;;28.67;17.90;;;5.10;55.20;;;;;;5040906;28;20437;-86
2021/03/19 10:56:25;;;;;;;27.63;18.43;;;5.40;55.00;;;;;;5063823;22;20464;-85
2021/03/19 10:58:54;;;;;;;29.90;17.57;;;6.00;53.30;;;;;;5040142;28;20443;-86
2021/03/19 11:01:37;;;;;;;29.70;18.60;;;6.10;54.50;;;;;;5041357;28;20480;-86
2021/03/19 11:04:24;;;;;;;25.10;16.90;;;6.50;52.50;;;;;;5050599;28;20418;-86
2021/03/19 11:06:51;;;;;;;26.63;17.73;;;6.80;51.80;;;;;;5049063;28;20449;-86
2021/03/19 11:09:20;;;;;;;25.97;16.30;;;7.60;50.00;;;;;;5046197;28;20511;-87
2021/03/19 11:11:49;;;;;;;23.33;16.30;;;8.20;49.00;;;;;;5040909;28;20991;-88
2021/03/19 11:14:20;;;;;;;28.13;16.83;;;8.40;47.30;;;;;;5040811;28;20449;-87
2021/03/19 11:16:49;;;;;;;25.73;15.50;;;7.90;48.70;;;;;;5041512;28;20509;-87
2021/03/19 11:19:21;;;;;;;20.00;13.07;;;8.00;48.00;;;;;;5041792;28;20456;-87
2021/03/19 11:21:59;;;;;;;19.87;14.03;;;8.60;48.30;;;;;;5039365;28;20845;-87
2021/03/19 11:24:32;;;;;;;10.33;7.33;;;9.00;45.70;;;;;;5038777;28;20500;-87
2021/03/19 11:27:13;;;;;;;22.43;14.27;;;9.10;47.80;;;;;;5039403;28;20502;-87
2021/03/19 11:29:42;;;;;;;15.03;11.13;;;9.30;45.30;;;;;;5040563;28;20516;-87
2021/03/19 11:32:29;;;;;;;18.30;13.53;;;9.90;45.40;;;;;;5048883;28;20453;-88
2021/03/19 11:34:57;;;;;;;28.13;14.60;;;9.90;44.40;;;;;;5040103;28;20805;-89
2021/03/19 11:37:34;;;;;;;18.03;13.03;;;10.10;44.50;;;;;;5040021;28;20467;-88
2021/03/19 11:40:04;;;;;;;25.03;14.93;;;10.40;44.80;;;;;;5039776;28;20428;-86
2021/03/19 11:42:35;;;;;;;15.30;8.37;;;10.80;43.10;;;;;;5038642;28;21005;-86
2021/03/19 11:45:04;;;;;;;12.03;9.67;;;10.60;38.10;;;;;;5039129;28;20462;-87
2021/03/19 11:47:34;;;;;;;20.60;10.53;;;9.00;41.30;;;;;;5040894;28;20453;-88
2021/03/19 11:50:16;;;;;;;11.73;9.07;;;8.80;44.20;;;;;;5041322;28;20444;-87
2021/03/19 11:52:43;;;;;;;10.93;6.80;;;9.30;43.00;;;;;;5040019;28;20588;-88
2021/03/19 11:55:15;;;;;;;11.47;8.33;;;9.70;43.00;;;;;;5037281;28;20479;-87
2021/03/19 11:57:41;;;;;;;14.27;9.27;;;9.70;39.90;;;;;;5036471;28;21056;-88
2021/03/19 12:00:09;;;;;;;17.00;9.30;;;9.80;40.80;;;;;;5036600;28;20452;-87
2021/03/19 12:02:40;;;;;;;17.33;9.50;;;9.70;41.90;;;;;;5036486;28;20550;-88
2021/03/19 12:05:10;;;;;;;12.07;8.73;;;9.80;41.60;;;;;;5037870;28;20439;-87
2021/03/19 12:07:37;;;;;;;16.13;8.57;;;9.50;39.60;;;;;;5035719;28;20504;-87
2021/03/19 12:10:04;;;;;;;12.17;8.97;;;7.50;44.10;;;;;;5036325;28;20473;-87
2021/03/19 12:12:31;;;;;;;11.30;8.87;;;6.60;48.60;;;;;;5036430;28;20467;-87
2021/03/19 12:14:58;;;;;;;13.30;8.17;;;5.90;49.30;;;;;;5036621;28;20941;-87
2021/03/19 12:17:25;;;;;;;10.40;7.10;;;5.30;50.80;;;;;;5036382;28;20465;-87
2021/03/19 12:19:53;;;;;;;16.63;9.60;;;4.70;53.10;;;;;;5037176;28;20477;-86
2021/03/19 12:22:20;;;;;;;13.40;8.67;;;5.10;53.30;;;;;;5036498;28;20527;-87
2021/03/19 12:24:47;;;;;;;9.40;7.07;;;5.00;53.40;;;;;;5035910;28;20510;-86
2021/03/19 12:27:14;;;;;;;12.20;8.27;;;5.10;52.40;;;;;;5035649;28;20464;-87
2021/03/19 12:29:41;;;;;;;9.70;6.73;;;5.00;52.00;;;;;;5035999;28;20797;-86
2021/03/19 12:32:08;;;;;;;18.07;11.80;;;5.00;52.30;;;;;;5035793;28;20852;-86
2021/03/19 12:34:35;;;;;;;23.30;13.00;;;5.30;52.80;;;;;;5036061;28;20449;-87
2021/03/19 12:37:02;;;;;;;12.50;9.10;;;5.40;52.30;;;;;;5036473;28;20472;-87
2021/03/19 12:39:29;;;;;;;18.43;10.37;;;5.80;52.30;;;;;;5036285;28;20487;-87
2021/03/19 12:41:55;;;;;;;11.13;7.70;;;5.50;50.90;;;;;;5036003;28;20507;-86
2021/03/19 12:44:22;;;;;;;9.20;7.30;;;5.40;50.80;;;;;;5036695;28;20472;-86
2021/03/19 12:46:50;;;;;;;12.90;7.40;;;5.20;51.40;;;;;;5036511;28;20805;-87
2021/03/19 12:49:16;;;;;;;12.50;8.70;;;5.70;50.70;;;;;;5037712;28;20445;-86
2021/03/19 12:51:43;;;;;;;13.70;8.90;;;5.60;51.30;;;;;;5035483;28;20630;-87
2021/03/19 12:54:10;;;;;;;12.37;8.47;;;5.60;50.30;;;;;;5035745;28;20500;-86
2021/03/19 12:56:37;;;;;;;9.73;7.30;;;5.60;51.80;;;;;;5035766;28;20488;-86
2021/03/19 12:59:03;;;;;;;11.27;8.00;;;6.10;50.50;;;;;;5035429;28;20456;-87
2021/03/19 13:01:30;;;;;;;10.23;8.33;;;5.70;49.20;;;;;;5035237;28;20931;-87
2021/03/19 13:03:56;;;;;;;10.27;7.67;;;5.50;50.60;;;;;;5043423;28;20460;-87
2021/03/19 13:06:24;;;;;;;11.57;8.50;;;5.60;49.70;;;;;;5053448;28;20445;-87
2021/03/19 13:08:50;;;;;;;10.57;7.37;;;5.60;50.20;;;;;;5053000;28;20452;-87
2021/03/19 13:11:19;;;;;;;11.73;7.33;;;5.80;49.50;;;;;;5052699;28;20475;-88
2021/03/19 13:13:46;;;;;;;11.23;8.47;;;5.70;49.70;;;;;;5051755;28;20443;-87
2021/03/19 13:16:13;;;;;;;9.33;7.40;;;5.70;49.90;;;;;;5035432;28;20479;-87
2021/03/19 13:18:39;;;;;;;12.67;8.37;;;5.60;49.60;;;;;;5039714;28;20441;-88
2021/03/19 13:21:06;;;;;;;13.73;8.53;;;5.50;49.30;;;;;;5054378;28;20438;-86
2021/03/19 13:23:33;;;;;;;13.63;8.07;;;5.60;49.70;;;;;;5054474;28;20453;-87